createdAt,value
2022-10-24T00:02:08.758Z,11.50
2022-10-24T00:04:36.093Z,11.60
2022-10-24T00:07:03.329Z,11.66
2022-10-24T00:09:29.729Z,11.54
2022-10-24T00:11:56.264Z,11.57
2022-10-24T00:14:23.045Z,11.46
2022-10-24T00:16:49.483Z,11.54
2022-10-24T00:19:15.968Z,11.61
2022-10-24T00:21:42.426Z,11.59
2022-10-24T00:24:09.160Z,11.60
2022-10-24T00:26:35.773Z,11.24
2022-10-24T00:29:02.238Z,11.20
2022-10-24T00:31:28.694Z,11.24
2022-10-24T00:33:56.661Z,11.33
2022-10-24T00:36:24.403Z,11.22
2022-10-24T00:38:51.355Z,11.32
2022-10-24T00:41:18.908Z,11.30
2022-10-24T00:43:45.983Z,10.96
2022-10-24T00:46:13.313Z,11.01
2022-10-24T00:48:41.719Z,11.11
2022-10-24T00:51:21.598Z,10.98
2022-10-24T00:53:50.127Z,10.84
2022-10-24T00:56:18.086Z,10.96
2022-10-24T00:58:44.841Z,10.98
2022-10-24T01:01:12.105Z,10.85
2022-10-24T01:03:38.784Z,10.57
2022-10-24T01:06:23.290Z,10.61
2022-10-24T01:09:03.730Z,10.75
2022-10-24T01:11:42.451Z,10.84
2022-10-24T01:14:18.127Z,10.75
2022-10-24T01:16:47.593Z,11.00
2022-10-24T01:19:32.382Z,11.03
2022-10-24T01:22:02.664Z,10.90
2022-10-24T01:24:47.937Z,10.95
2022-10-24T01:27:17.395Z,11.01
2022-10-24T01:29:47.624Z,11.06
2022-10-24T01:32:21.213Z,11.20
2022-10-24T01:34:57.021Z,11.17
2022-10-24T01:37:29.732Z,11.16
2022-10-24T01:39:59.542Z,10.93
2022-10-24T01:42:27.935Z,10.93
2022-10-24T01:44:56.034Z,10.95
2022-10-24T01:47:27.869Z,11.07
2022-10-24T01:49:59.318Z,11.00
2022-10-24T01:52:28.558Z,11.23
2022-10-24T01:54:55.047Z,11.23
2022-10-24T01:57:26.662Z,11.08
2022-10-24T01:59:53.086Z,11.28
2022-10-24T02:02:34.986Z,11.19
2022-10-24T02:05:06.281Z,11.41
2022-10-24T02:07:34.036Z,11.43
2022-10-24T02:10:02.728Z,11.33
2022-10-24T02:12:30.040Z,11.23
2022-10-24T02:15:00.601Z,11.21
2022-10-24T02:19:59.317Z,10.93
2022-10-24T02:22:44.376Z,11.06
2022-10-24T02:25:12.834Z,11.03
2022-10-24T02:27:43.515Z,11.19
2022-10-24T02:30:19.062Z,11.01
2022-10-24T02:32:47.511Z,11.06
2022-10-24T02:35:15.097Z,11.08
2022-10-24T02:37:47.801Z,10.99
2022-10-24T02:40:15.771Z,11.16
2022-10-24T02:42:43.325Z,10.91
2022-10-24T02:45:12.154Z,10.70
2022-10-24T02:47:40.139Z,10.85
2022-10-24T02:50:07.507Z,11.01
2022-10-24T02:52:34.930Z,11.01
2022-10-24T02:55:01.333Z,10.85
2022-10-24T02:57:28.182Z,10.99
2022-10-24T02:59:54.585Z,11.07
2022-10-24T03:02:21.270Z,11.13
2022-10-24T03:04:47.666Z,10.97
2022-10-24T03:07:14.098Z,10.80
2022-10-24T03:09:40.621Z,11.01
2022-10-24T03:12:07.099Z,10.87
2022-10-24T03:14:33.639Z,11.10
2022-10-24T03:17:00.113Z,11.07
2022-10-24T03:19:26.536Z,11.27
2022-10-24T03:21:52.948Z,11.20
2022-10-24T03:24:26.983Z,11.03
2022-10-24T03:27:03.868Z,11.26
2022-10-24T03:29:30.327Z,11.40
2022-10-24T03:31:56.748Z,11.46
2022-10-24T03:34:23.304Z,11.48
2022-10-24T03:36:49.755Z,11.41
2022-10-24T03:39:16.246Z,11.48
2022-10-24T03:41:42.707Z,11.42
2022-10-24T03:44:09.164Z,11.42
2022-10-24T03:46:35.615Z,11.37
2022-10-24T03:51:33.406Z,11.76
2022-10-24T03:53:59.810Z,11.53
2022-10-24T03:56:26.369Z,11.46
2022-10-24T03:58:52.781Z,11.32
2022-10-24T04:01:19.497Z,11.12
2022-10-24T04:03:46.237Z,11.09
2022-10-24T04:06:13.085Z,11.18
2022-10-24T04:08:39.781Z,11.19
2022-10-24T04:11:06.624Z,11.20
2022-10-24T04:13:33.251Z,11.31
2022-10-24T04:15:59.707Z,11.20
2022-10-24T04:18:26.194Z,11.18
2022-10-24T04:20:52.679Z,11.17
2022-10-24T04:23:19.074Z,10.97
2022-10-24T04:25:46.198Z,11.04
2022-10-24T04:28:12.602Z,11.12
2022-10-24T04:30:39.105Z,11.13
2022-10-24T04:33:05.737Z,11.05
2022-10-24T04:35:32.229Z,11.02
2022-10-24T04:37:58.739Z,11.21
2022-10-24T04:40:25.378Z,11.33
2022-10-24T04:42:51.851Z,11.20
2022-10-24T04:45:18.500Z,11.10
2022-10-24T04:47:45.182Z,11.25
2022-10-24T04:50:11.823Z,11.30
2022-10-24T04:52:38.325Z,11.33
2022-10-24T04:55:04.973Z,11.39
2022-10-24T04:57:31.404Z,11.37
2022-10-24T04:59:57.845Z,11.11
2022-10-24T05:02:24.297Z,11.14
2022-10-24T05:04:51.023Z,11.22
2022-10-24T05:07:17.533Z,11.40
2022-10-24T05:09:44.005Z,11.55
2022-10-24T05:12:10.454Z,11.56
2022-10-24T05:14:36.929Z,11.42
2022-10-24T05:17:03.453Z,11.37
2022-10-24T05:19:29.988Z,11.47
2022-10-24T05:21:56.411Z,11.57
2022-10-24T05:24:22.871Z,11.57
2022-10-24T05:26:49.343Z,11.44
2022-10-24T05:29:15.836Z,11.45
2022-10-24T05:31:42.290Z,11.48
2022-10-24T05:34:08.736Z,11.44
2022-10-24T05:36:35.169Z,11.32
2022-10-24T05:39:01.620Z,11.57
2022-10-24T05:41:28.047Z,11.45
2022-10-24T05:43:54.464Z,11.65
2022-10-24T05:46:20.906Z,11.43
2022-10-24T05:48:47.341Z,11.36
2022-10-24T05:51:13.779Z,11.29
2022-10-24T05:53:40.186Z,11.49
2022-10-24T05:56:06.700Z,11.58
2022-10-24T05:58:33.578Z,11.68
2022-10-24T06:01:00.893Z,11.69
2022-10-24T06:03:27.359Z,11.82
2022-10-24T06:05:53.867Z,11.74
2022-10-24T06:08:20.330Z,11.89
2022-10-24T06:10:47.882Z,11.99
2022-10-24T06:13:14.521Z,12.01
2022-10-24T06:15:41.688Z,11.82
2022-10-24T06:18:08.107Z,11.83
2022-10-24T06:20:34.556Z,11.81
2022-10-24T06:23:00.991Z,11.79
2022-10-24T06:25:27.446Z,11.96
2022-10-24T06:27:53.910Z,12.05
2022-10-24T06:30:20.458Z,11.88
2022-10-24T06:32:47.391Z,11.99
2022-10-24T06:35:15.867Z,11.97
2022-10-24T06:37:45.723Z,12.08
2022-10-24T06:40:14.570Z,12.26
2022-10-24T06:42:41.019Z,12.39
2022-10-24T06:45:07.645Z,12.34
2022-10-24T06:47:34.127Z,12.29
2022-10-24T06:50:00.560Z,12.26
2022-10-24T06:52:27.013Z,12.60
2022-10-24T06:54:53.426Z,12.60
2022-10-24T06:57:19.859Z,12.59
2022-10-24T06:59:46.320Z,12.53
2022-10-24T07:02:13.920Z,12.74
2022-10-24T07:04:40.498Z,13.06
2022-10-24T07:07:06.984Z,13.14
2022-10-24T07:09:33.506Z,12.92
2022-10-24T07:12:00.001Z,12.73
2022-10-24T07:14:26.632Z,13.04
2022-10-24T07:16:53.106Z,13.01
2022-10-24T07:19:19.558Z,13.00
2022-10-24T07:21:46.007Z,13.39
2022-10-24T07:24:12.813Z,13.63
2022-10-24T07:26:39.258Z,13.64
2022-10-24T07:29:05.864Z,13.70
2022-10-24T07:31:33.575Z,13.81
2022-10-24T07:34:00.892Z,13.91
2022-10-24T07:36:28.150Z,13.95
2022-10-24T07:38:56.295Z,14.09
2022-10-24T07:41:24.339Z,14.30
2022-10-24T07:43:51.162Z,14.32
2022-10-24T07:46:18.527Z,14.37
2022-10-24T07:48:44.992Z,14.47
2022-10-24T07:51:14.516Z,14.62
2022-10-24T07:53:41.894Z,14.88
2022-10-24T07:56:11.868Z,15.11
2022-10-24T07:58:38.349Z,15.23
2022-10-24T08:01:05.912Z,15.29
2022-10-24T08:03:32.405Z,15.45
2022-10-24T08:05:58.906Z,15.57
2022-10-24T08:08:35.579Z,15.58
2022-10-24T08:11:07.521Z,15.60
2022-10-24T08:13:33.941Z,15.74
2022-10-24T08:16:00.417Z,15.86
2022-10-24T08:18:30.121Z,15.78
2022-10-24T08:20:58.214Z,15.93
2022-10-24T08:23:25.593Z,16.20
2022-10-24T08:25:52.399Z,16.67
2022-10-24T08:28:18.958Z,17.11
2022-10-24T08:30:45.358Z,16.92
2022-10-24T08:33:15.994Z,17.07
2022-10-24T08:35:45.289Z,17.03
2022-10-24T08:38:12.263Z,17.18
2022-10-24T08:40:39.751Z,17.17
2022-10-24T08:43:06.312Z,17.34
2022-10-24T08:45:39.095Z,17.44
2022-10-24T08:48:08.465Z,17.34
2022-10-24T08:50:35.530Z,17.64
2022-10-24T08:53:04.230Z,17.67
2022-10-24T08:55:49.356Z,18.13
2022-10-24T08:58:18.574Z,17.56
2022-10-24T09:00:46.274Z,17.60
2022-10-24T09:03:17.555Z,17.57
2022-10-24T09:05:51.880Z,17.56
2022-10-24T09:08:23.906Z,17.75
2022-10-24T09:10:56.355Z,17.60
2022-10-24T09:13:25.704Z,17.61
2022-10-24T09:15:52.273Z,17.63
2022-10-24T09:18:21.715Z,17.89
2022-10-24T09:20:48.622Z,17.70
2022-10-24T09:23:16.261Z,17.93
2022-10-24T09:25:44.905Z,17.77
2022-10-24T09:28:12.093Z,18.11
2022-10-24T09:30:38.647Z,18.10
2022-10-24T09:33:13.149Z,18.26
2022-10-24T09:35:39.986Z,17.93
2022-10-24T09:38:25.940Z,18.30
2022-10-24T09:40:53.678Z,18.86
2022-10-24T09:43:26.268Z,19.09
2022-10-24T09:46:01.353Z,19.05
2022-10-24T09:48:46.626Z,19.11
2022-10-24T09:51:21.660Z,19.15
2022-10-24T09:54:07.561Z,19.04
2022-10-24T09:56:41.125Z,19.26
2022-10-24T09:59:26.110Z,19.15
2022-10-24T10:01:52.724Z,19.34
2022-10-24T10:04:19.629Z,19.30
2022-10-24T10:06:47.675Z,19.10
2022-10-24T10:09:15.732Z,18.71
2022-10-24T10:11:49.388Z,19.62
2022-10-24T10:14:28.770Z,19.46
2022-10-24T10:16:59.458Z,18.80
2022-10-24T10:19:26.335Z,18.92
2022-10-24T10:21:52.747Z,19.03
2022-10-24T10:24:46.117Z,18.95
2022-10-24T10:27:32.060Z,18.53
2022-10-24T10:30:18.814Z,18.35
2022-10-24T10:33:05.745Z,18.25
2022-10-24T10:35:33.121Z,18.33
2022-10-24T10:38:08.533Z,18.54
2022-10-24T10:40:44.166Z,18.50
2022-10-24T10:43:15.755Z,18.48
2022-10-24T10:46:00.971Z,18.33
2022-10-24T10:48:38.473Z,18.55
2022-10-24T10:51:08.478Z,18.80
2022-10-24T10:53:51.183Z,18.49
2022-10-24T10:56:24.973Z,18.49
2022-10-24T10:58:57.164Z,18.44
2022-10-24T11:01:32.929Z,18.76
2022-10-24T11:04:22.355Z,18.74
2022-10-24T11:06:51.674Z,18.84
2022-10-24T11:09:30.257Z,18.60
2022-10-24T11:12:03.298Z,18.56
2022-10-24T11:14:33.069Z,18.59
2022-10-24T11:17:19.769Z,18.67
2022-10-24T11:19:46.181Z,18.70
2022-10-24T11:22:17.670Z,18.77
2022-10-24T11:24:46.902Z,18.77
2022-10-24T11:27:16.893Z,18.70
2022-10-24T11:29:48.942Z,18.52
2022-10-24T11:32:38.622Z,18.60
2022-10-24T11:35:22.421Z,18.68
2022-10-24T11:37:50.964Z,19.01
2022-10-24T11:40:20.430Z,19.16
2022-10-24T11:43:02.217Z,19.26
2022-10-24T11:45:33.066Z,19.35
2022-10-24T11:48:26.304Z,19.74
2022-10-24T11:50:58.739Z,19.67
2022-10-24T11:53:31.470Z,19.70
2022-10-24T11:56:18.001Z,19.71
2022-10-24T11:58:59.061Z,20.18
2022-10-24T12:01:34.125Z,20.06
2022-10-24T12:04:19.170Z,20.22
2022-10-24T12:07:05.540Z,20.19
2022-10-24T12:09:35.146Z,20.20
2022-10-24T12:12:08.603Z,20.16
2022-10-24T12:14:47.425Z,20.13
2022-10-24T12:17:27.101Z,20.03
2022-10-24T12:19:53.785Z,20.24
2022-10-24T12:22:23.701Z,20.26
2022-10-24T12:25:01.753Z,20.02
2022-10-24T12:27:37.083Z,19.88
2022-10-24T12:30:09.769Z,20.02
2022-10-24T12:32:39.603Z,19.88
2022-10-24T12:35:30.287Z,19.85
2022-10-24T12:37:57.545Z,19.79
2022-10-24T12:40:42.552Z,19.75
2022-10-24T12:43:13.879Z,19.90
2022-10-24T12:45:40.346Z,20.10
2022-10-24T12:48:29.191Z,20.11
2022-10-24T12:50:58.702Z,19.76
2022-10-24T12:53:38.868Z,19.83
2022-10-24T12:56:07.392Z,19.83
2022-10-24T12:58:37.769Z,19.89
2022-10-24T13:01:10.062Z,19.98
2022-10-24T13:03:36.515Z,19.94
2022-10-24T13:06:06.030Z,19.90
2022-10-24T13:08:35.565Z,20.05
2022-10-24T13:11:21.518Z,19.94
2022-10-24T13:13:50.007Z,19.87
2022-10-24T13:16:21.749Z,19.90
2022-10-24T13:18:56.516Z,19.95
2022-10-24T13:21:26.085Z,20.15
2022-10-24T13:23:53.029Z,19.94
2022-10-24T13:26:38.054Z,19.69
2022-10-24T13:29:05.700Z,19.87
2022-10-24T13:31:32.093Z,19.97
2022-10-24T13:34:18.009Z,19.97
2022-10-24T13:36:45.298Z,19.86
2022-10-24T13:39:15.418Z,19.91
2022-10-24T13:41:44.295Z,19.92
2022-10-24T13:44:22.647Z,19.92
2022-10-24T13:46:54.441Z,20.35
2022-10-24T13:49:32.769Z,20.10
2022-10-24T13:52:28.559Z,20.57
2022-10-24T13:55:00.403Z,20.93
2022-10-24T13:57:28.810Z,21.35
2022-10-24T13:59:56.926Z,21.44
2022-10-24T14:02:27.273Z,21.36
2022-10-24T14:04:58.356Z,21.42
2022-10-24T14:07:29.485Z,21.71
2022-10-24T14:10:01.214Z,21.90
2022-10-24T14:12:30.121Z,21.52
2022-10-24T14:14:58.743Z,21.66
2022-10-24T14:17:33.715Z,21.67
2022-10-24T14:20:02.055Z,22.00
2022-10-24T14:22:34.881Z,21.71
2022-10-24T14:25:01.466Z,21.59
2022-10-24T14:27:28.069Z,21.69
2022-10-24T14:30:04.241Z,21.92
2022-10-24T14:32:31.198Z,22.07
2022-10-24T14:34:58.662Z,21.99
2022-10-24T14:37:33.382Z,21.76
2022-10-24T14:40:00.318Z,21.44
2022-10-24T14:42:27.858Z,21.10
2022-10-24T14:44:58.283Z,20.91
2022-10-24T14:47:29.915Z,20.66
2022-10-24T14:49:59.554Z,20.32
2022-10-24T14:52:36.981Z,20.23
2022-10-24T14:55:05.865Z,20.15
2022-10-24T14:57:34.210Z,20.19
2022-10-24T15:00:07.090Z,20.46
2022-10-24T15:02:42.049Z,20.53
2022-10-24T15:05:13.720Z,19.76
2022-10-24T15:07:44.914Z,19.64
2022-10-24T15:10:26.046Z,19.54
2022-10-24T15:12:53.875Z,19.65
2022-10-24T15:15:23.526Z,19.47
2022-10-24T15:17:50.637Z,18.82
2022-10-24T15:20:18.609Z,18.74
2022-10-24T15:22:50.126Z,18.99
2022-10-24T15:27:48.874Z,18.79
2022-10-24T15:30:16.989Z,18.50
2022-10-24T15:32:43.766Z,18.47
2022-10-24T15:35:10.297Z,18.35
2022-10-24T15:37:36.706Z,18.60
2022-10-24T15:40:19.733Z,18.16
2022-10-24T15:42:46.320Z,18.14
2022-10-24T15:45:13.803Z,18.17
2022-10-24T15:47:40.217Z,18.43
2022-10-24T15:50:06.755Z,18.02
2022-10-24T15:52:33.281Z,17.88
2022-10-24T15:55:00.437Z,17.72
2022-10-24T15:57:26.882Z,17.41
2022-10-24T15:59:53.309Z,17.29
2022-10-24T16:02:21.463Z,17.14
2022-10-24T16:04:47.933Z,17.06
2022-10-24T16:07:14.378Z,17.02
2022-10-24T16:09:41.057Z,16.95
2022-10-24T16:12:07.624Z,16.71
2022-10-24T16:14:34.251Z,16.55
2022-10-24T16:17:00.750Z,16.63
2022-10-24T16:19:27.359Z,16.55
2022-10-24T16:21:58.222Z,16.60
2022-10-24T16:24:25.199Z,16.54
2022-10-24T16:26:52.065Z,16.48
2022-10-24T16:29:18.464Z,16.40
2022-10-24T16:31:46.838Z,16.41
2022-10-24T16:34:13.367Z,16.39
2022-10-24T16:36:42.898Z,16.30
2022-10-24T16:39:09.387Z,16.22
2022-10-24T16:41:35.968Z,16.16
2022-10-24T16:44:03.738Z,16.21
2022-10-24T16:46:30.283Z,16.20
2022-10-24T16:48:56.971Z,16.02
2022-10-24T16:51:25.358Z,16.04
2022-10-24T16:53:51.854Z,15.94
2022-10-24T16:56:18.301Z,16.08
2022-10-24T16:58:44.789Z,16.15
2022-10-24T17:01:12.881Z,16.04
2022-10-24T17:03:39.997Z,15.94
2022-10-24T17:06:07.045Z,15.74
2022-10-24T17:08:33.670Z,15.82
2022-10-24T17:11:00.796Z,15.86
2022-10-24T17:13:27.809Z,15.87
2022-10-24T17:15:54.358Z,15.90
2022-10-24T17:18:23.334Z,15.85
2022-10-24T17:20:50.019Z,15.88
2022-10-24T17:23:17.926Z,16.06
2022-10-24T17:25:45.657Z,16.16
2022-10-24T17:28:13.658Z,16.18
2022-10-24T17:30:40.184Z,16.23
2022-10-24T17:33:07.271Z,16.09
2022-10-24T17:35:36.008Z,15.92
2022-10-24T17:38:37.942Z,15.99
2022-10-24T17:41:24.742Z,16.01
2022-10-24T17:43:51.385Z,15.95
2022-10-24T17:46:18.399Z,15.93
2022-10-24T17:48:44.878Z,15.93
2022-10-24T17:51:12.176Z,15.83
2022-10-24T17:53:38.630Z,15.92
2022-10-24T17:56:05.279Z,16.04
2022-10-24T17:58:31.774Z,16.08
2022-10-24T18:00:58.193Z,16.26
2022-10-24T18:03:24.813Z,16.51
2022-10-24T18:05:51.374Z,16.54
2022-10-24T18:08:18.390Z,16.57
2022-10-24T18:10:44.817Z,16.42
2022-10-24T18:13:11.264Z,16.28
2022-10-24T18:15:38.098Z,16.65
2022-10-24T18:18:04.907Z,16.84
2022-10-24T18:20:32.151Z,16.89
2022-10-24T18:22:59.268Z,17.20
2022-10-24T18:25:25.766Z,17.33
2022-10-24T18:27:52.277Z,16.99
2022-10-24T18:30:19.554Z,16.83
2022-10-24T18:32:46.535Z,16.41
2022-10-24T18:35:13.248Z,16.49
2022-10-24T18:37:39.848Z,16.37
2022-10-24T18:40:07.822Z,16.21
2022-10-24T18:42:43.734Z,16.36
2022-10-24T18:45:17.592Z,16.32
2022-10-24T18:47:44.696Z,16.27
2022-10-24T18:50:15.633Z,16.20
2022-10-24T18:52:54.354Z,16.40
2022-10-24T18:55:21.954Z,16.20
2022-10-24T18:57:49.110Z,16.15
2022-10-24T19:00:20.393Z,16.11
2022-10-24T19:02:53.716Z,15.79
2022-10-24T19:05:25.236Z,15.82
2022-10-24T19:07:52.129Z,15.71
2022-10-24T19:10:27.973Z,15.81
2022-10-24T19:12:54.575Z,15.83
2022-10-24T19:15:21.441Z,15.49
2022-10-24T19:17:48.489Z,15.66
2022-10-24T19:20:17.013Z,15.58
2022-10-24T19:22:43.623Z,15.36
2022-10-24T19:25:10.219Z,15.58
2022-10-24T19:27:37.266Z,15.64
2022-10-24T19:30:04.521Z,15.51
2022-10-24T19:32:31.450Z,15.44
2022-10-24T19:34:57.889Z,15.46
2022-10-24T19:37:25.371Z,15.44
2022-10-24T19:39:52.097Z,15.37
2022-10-24T19:42:18.646Z,15.35
2022-10-24T19:47:15.620Z,15.31
2022-10-24T19:49:42.058Z,15.32
2022-10-24T19:52:09.573Z,15.80
2022-10-24T19:54:36.038Z,15.34
2022-10-24T19:57:02.437Z,15.21
2022-10-24T19:59:33.681Z,15.12
2022-10-24T20:02:00.572Z,15.19
2022-10-24T20:04:27.090Z,15.22
2022-10-24T20:06:53.573Z,15.31
2022-10-24T20:09:19.977Z,15.33
2022-10-24T20:11:46.397Z,15.09
2022-10-24T20:14:12.818Z,14.91
2022-10-24T20:16:39.290Z,14.79
2022-10-24T20:19:06.570Z,14.80
2022-10-24T20:21:35.282Z,14.87
2022-10-24T20:24:01.706Z,14.74
2022-10-24T20:26:28.130Z,14.78
2022-10-24T20:28:55.519Z,14.66
2022-10-24T20:31:26.681Z,14.64
2022-10-24T20:33:53.206Z,14.69
2022-10-24T20:36:23.170Z,14.67
2022-10-24T20:38:49.595Z,14.70
2022-10-24T20:41:16.017Z,14.87
2022-10-24T20:43:42.579Z,14.87
2022-10-24T20:46:09.024Z,14.91
2022-10-24T20:48:35.529Z,14.96
2022-10-24T20:51:09.945Z,15.01
2022-10-24T20:53:36.746Z,14.77
2022-10-24T20:56:04.466Z,14.63
2022-10-24T20:58:30.974Z,14.75
2022-10-24T21:00:57.504Z,14.73
2022-10-24T21:03:23.958Z,14.69
2022-10-24T21:05:50.365Z,14.70
2022-10-24T21:08:16.794Z,14.59
2022-10-24T21:10:43.213Z,14.51
2022-10-24T21:13:09.633Z,14.55
2022-10-24T21:15:36.040Z,14.56
2022-10-24T21:18:02.599Z,14.67
2022-10-24T21:20:29.012Z,14.69
2022-10-24T21:22:55.438Z,14.68
2022-10-24T21:25:21.864Z,14.54
2022-10-24T21:27:48.642Z,14.63
2022-10-24T21:30:15.943Z,14.60
2022-10-24T21:32:42.422Z,14.54
2022-10-24T21:35:08.899Z,14.61
2022-10-24T21:37:35.426Z,14.58
2022-10-24T21:40:01.872Z,14.40
2022-10-24T21:42:30.248Z,14.54
2022-10-24T21:44:56.664Z,14.57
2022-10-24T21:47:23.138Z,15.03
2022-10-24T21:49:49.558Z,15.22
2022-10-24T21:52:15.976Z,15.04
2022-10-24T21:54:42.410Z,14.76
2022-10-24T21:57:08.815Z,14.92
2022-10-24T21:59:36.098Z,14.75
2022-10-24T22:02:02.718Z,14.66
2022-10-24T22:04:29.294Z,14.68
2022-10-24T22:06:55.726Z,14.15
2022-10-24T22:09:23.799Z,14.17
2022-10-24T22:11:50.658Z,14.36
2022-10-24T22:14:17.939Z,14.37
2022-10-24T22:16:44.661Z,14.38
2022-10-24T22:19:12.313Z,14.41
2022-10-24T22:21:40.889Z,14.43
2022-10-24T22:24:11.664Z,14.38
2022-10-24T22:26:38.681Z,14.35
2022-10-24T22:29:06.169Z,14.31
2022-10-24T22:31:32.819Z,14.00
2022-10-24T22:33:59.457Z,14.14
2022-10-24T22:36:38.266Z,14.19
2022-10-24T22:39:05.625Z,14.16
2022-10-24T22:41:32.418Z,14.13
2022-10-24T22:43:59.001Z,14.26
2022-10-24T22:46:43.533Z,14.10
2022-10-24T22:49:23.799Z,14.06
2022-10-24T22:51:50.433Z,14.04
2022-10-24T22:54:19.362Z,13.72
2022-10-24T22:56:46.146Z,13.73
2022-10-24T22:59:12.680Z,13.78
2022-10-24T23:01:42.112Z,13.81
2022-10-24T23:04:28.430Z,13.85
2022-10-24T23:07:10.072Z,13.75
2022-10-24T23:09:36.504Z,13.81
2022-10-24T23:12:07.862Z,13.75
2022-10-24T23:14:34.527Z,13.78
2022-10-24T23:17:01.200Z,13.70
2022-10-24T23:19:28.934Z,13.71
2022-10-24T23:21:58.646Z,13.90
2022-10-24T23:24:25.241Z,13.70
2022-10-24T23:26:51.650Z,13.78
2022-10-24T23:29:24.603Z,13.70
2022-10-24T23:31:51.158Z,13.77
2022-10-24T23:34:17.729Z,13.71
2022-10-24T23:36:44.748Z,13.73
2022-10-24T23:39:12.890Z,13.76
2022-10-24T23:41:39.914Z,13.75
2022-10-24T23:44:06.618Z,13.64
2022-10-24T23:46:37.361Z,13.65
2022-10-24T23:49:10.035Z,13.68
2022-10-24T23:51:50.471Z,13.60
2022-10-24T23:54:20.960Z,13.55
2022-10-24T23:56:47.588Z,13.63
2022-10-24T23:59:14.009Z,13.62
